Time,TemperatureF,DewpointF,PressureIn,WindDirection,WindDirectionDegrees,WindSpeedMPH,WindSpeedGustMPH,Humidity,HourlyPrecipIn,Conditions,Clouds,dailyrainin,SolarRadiationWatts/m^2,SoftwareType,DateUTC
2013-02-16 00:36:00,33.8,19.0,29.96,West,268,7.0,7.0,56,0.00,,,0.00,0,weatherlink.com 1.10,2013-02-16 05:36:00,
2013-02-16 02:06:00,32.5,21.0,29.98,West,274,13.0,17.0,64,0.00,,,0.00,0,weatherlink.com 1.10,2013-02-16 07:06:00,
2013-02-16 02:36:00,32.0,21.0,29.97,West,275,10.0,20.0,65,0.00,,,0.00,0,weatherlink.com 1.10,2013-02-16 07:36:00,
2013-02-16 02:51:00,31.6,22.0,29.97,WNW,302,5.0,15.0,67,0.00,,,0.00,0,weatherlink.com 1.10,2013-02-16 07:51:00,
2013-02-16 03:06:00,30.6,23.0,29.97,WNW,300,5.0,15.0,73,0.00,,,0.00,0,weatherlink.com 1.10,2013-02-16 08:06:00,
2013-02-16 03:21:00,29.8,23.0,29.97,WNW,282,7.0,19.0,76,0.00,,,0.00,0,weatherlink.com 1.10,2013-02-16 08:21:00,
2013-02-16 03:36:00,28.7,24.0,29.97,WNW,288,3.0,16.0,83,0.00,,,0.00,0,weatherlink.com 1.10,2013-02-16 08:36:00,
2013-02-16 03:51:00,27.8,25.0,29.96,West,277,9.0,11.0,88,0.00,,,0.00,0,weatherlink.com 1.10,2013-02-16 08:51:00,
2013-02-16 04:06:00,27.4,25.0,29.97,West,261,8.0,11.0,90,0.00,,,0.00,0,weatherlink.com 1.10,2013-02-16 09:06:00,
2013-02-16 04:21:00,27.2,25.0,29.96,West,261,3.0,7.0,91,0.00,,,0.00,0,weatherlink.com 1.10,2013-02-16 09:21:00,
2013-02-16 04:36:00,27.2,25.0,29.96,West,260,2.0,8.0,91,0.00,,,0.00,0,weatherlink.com 1.10,2013-02-16 09:36:00,
2013-02-16 04:51:00,27.1,25.0,29.96,West,261,6.0,8.0,92,0.00,,,0.00,0,weatherlink.com 1.10,2013-02-16 09:51:00,
2013-02-16 05:06:00,27.1,25.0,29.96,West,261,8.0,9.0,91,0.00,,,0.00,0,weatherlink.com 1.10,2013-02-16 10:06:00,
2013-02-16 05:21:00,27.2,25.0,29.96,West,267,5.0,8.0,91,0.00,,,0.00,0,weatherlink.com 1.10,2013-02-16 10:21:00,
2013-02-16 05:36:00,27.1,25.0,29.96,West,276,6.0,11.0,90,0.00,,,0.00,0,weatherlink.com 1.10,2013-02-16 10:36:00,
2013-02-16 05:52:00,26.9,25.0,29.96,West,269,5.0,12.0,91,0.00,,,0.00,0,weatherlink.com 1.10,2013-02-16 10:52:00,
2013-02-16 06:06:00,26.7,25.0,29.96,West,277,5.0,9.0,92,0.00,,,0.00,0,weatherlink.com 1.10,2013-02-16 11:06:00,
2013-02-16 06:21:00,26.5,25.0,29.96,West,279,5.0,11.0,93,0.00,,,0.00,0,weatherlink.com 1.10,2013-02-16 11:21:00,
2013-02-16 06:36:00,26.4,25.0,29.96,West,280,4.0,7.0,93,0.00,,,0.00,0,weatherlink.com 1.10,2013-02-16 11:36:00,
2013-02-16 06:51:00,26.2,25.0,29.95,West,280,2.0,6.0,94,0.00,,,0.00,11,weatherlink.com 1.10,2013-02-16 11:51:00,
2013-02-16 07:06:00,26.2,25.0,29.95,West,280,1.0,8.0,94,0.00,,,0.00,12,weatherlink.com 1.10,2013-02-16 12:06:00,
2013-02-16 07:21:00,26.2,25.0,29.96,West,280,6.0,7.0,93,0.00,,,0.00,19,weatherlink.com 1.10,2013-02-16 12:21:00,
2013-02-16 07:37:00,26.2,24.0,29.95,West,280,2.0,8.0,92,0.00,,,0.00,42,weatherlink.com 1.10,2013-02-16 12:37:00,
2013-02-16 07:52:00,26.4,24.0,29.95,West,280,4.0,7.0,91,0.00,,,0.00,72,weatherlink.com 1.10,2013-02-16 12:52:00,
2013-02-16 08:07:00,26.7,24.0,29.96,WNW,286,3.0,10.0,90,0.00,,,0.00,90,weatherlink.com 1.10,2013-02-16 13:07:00,
2013-02-16 08:22:00,27.1,24.0,29.95,NW,304,9.0,12.0,88,0.00,,,0.00,102,weatherlink.com 1.10,2013-02-16 13:22:00,
2013-02-16 08:37:00,27.4,24.0,29.96,NW,307,4.0,9.0,87,0.00,,,0.00,123,weatherlink.com 1.10,2013-02-16 13:37:00,
2013-02-16 08:52:00,27.7,23.0,29.96,WNW,297,7.0,11.0,83,0.00,,,0.00,148,weatherlink.com 1.10,2013-02-16 13:52:00,
2013-02-16 09:07:00,28.1,22.0,29.96,WNW,290,6.0,13.0,78,0.00,,,0.00,232,weatherlink.com 1.10,2013-02-16 14:07:00,
2013-02-16 09:22:00,28.6,22.0,29.96,NW,309,8.0,12.0,75,0.00,,,0.00,250,weatherlink.com 1.10,2013-02-16 14:22:00,
2013-02-16 09:37:00,29.2,20.0,29.95,WNW,286,9.0,13.0,69,0.00,,,0.00,338,weatherlink.com 1.10,2013-02-16 14:37:00,
2013-02-16 09:52:00,29.6,21.0,29.95,WNW,301,5.0,15.0,69,0.00,,,0.00,392,weatherlink.com 1.10,2013-02-16 14:52:00,
2013-02-16 10:07:00,29.3,21.0,29.95,WNW,292,10.0,14.0,70,0.00,,,0.00,380,weatherlink.com 1.10,2013-02-16 15:07:00,
2013-02-16 10:22:00,30.5,22.0,29.94,NW,325,2.0,14.0,70,0.00,,,0.00,487,weatherlink.com 1.10,2013-02-16 15:22:00,
2013-02-16 10:37:00,30.2,21.0,29.94,NW,304,11.0,14.0,68,0.00,,,0.00,613,weatherlink.com 1.10,2013-02-16 15:37:00,
2013-02-16 10:52:00,30.6,20.0,29.94,WNW,289,7.0,19.0,66,0.00,,,0.00,592,weatherlink.com 1.10,2013-02-16 15:52:00,
2013-02-16 11:07:00,30.6,20.0,29.93,NNW,329,7.0,16.0,65,0.00,,,0.00,694,weatherlink.com 1.10,2013-02-16 16:07:00,
2013-02-16 11:22:00,32.4,20.0,29.94,WNW,284,11.0,16.0,60,0.00,,,0.00,663,weatherlink.com 1.10,2013-02-16 16:22:00,
2013-02-16 11:37:00,32.1,20.0,29.94,NNW,344,3.0,13.0,61,0.00,,,0.00,533,weatherlink.com 1.10,2013-02-16 16:37:00,
2013-02-16 11:52:00,31.8,20.0,29.93,WSW,254,6.0,13.0,63,0.00,,,0.00,533,weatherlink.com 1.10,2013-02-16 16:52:00,
2013-02-16 12:07:00,32.3,20.0,29.92,NNW,345,6.0,13.0,62,0.00,,,0.00,325,weatherlink.com 1.10,2013-02-16 17:07:00,
2013-02-16 12:22:00,31.1,20.0,29.91,NNE,28,4.0,13.0,64,0.00,,,0.00,251,weatherlink.com 1.10,2013-02-16 17:22:00,
2013-02-16 12:37:00,32.7,19.0,29.91,NW,305,8.0,12.0,58,0.00,,,0.00,663,weatherlink.com 1.10,2013-02-16 17:37:00,
2013-02-16 13:08:00,32.4,19.0,29.91,NW,321,8.0,11.0,58,0.00,,,0.00,302,weatherlink.com 1.10,2013-02-16 18:08:00,
2013-02-16 13:22:00,31.9,20.0,29.91,NNW,348,10.0,14.0,61,0.00,,,0.00,313,weatherlink.com 1.10,2013-02-16 18:22:00,
2013-02-16 13:37:00,31.8,20.0,29.91,NNW,340,6.0,13.0,61,0.00,,,0.00,309,weatherlink.com 1.10,2013-02-16 18:37:00,
2013-02-16 13:53:00,32.4,20.0,29.90,NNW,344,2.0,12.0,60,0.00,,,0.00,341,weatherlink.com 1.10,2013-02-16 18:53:00,
2013-02-16 14:07:00,32.1,19.0,29.89,North,355,9.0,15.0,59,0.00,,,0.00,257,weatherlink.com 1.10,2013-02-16 19:07:00,
2013-02-16 14:37:00,31.4,18.0,29.90,NW,319,11.0,16.0,57,0.00,,,0.00,204,weatherlink.com 1.10,2013-02-16 19:37:00,
2013-02-16 14:52:00,30.8,17.0,29.90,NNW,333,9.0,14.0,58,0.00,,,0.00,192,weatherlink.com 1.10,2013-02-16 19:52:00,
2013-02-16 15:07:00,31.4,18.0,29.90,WNW,290,1.0,16.0,57,0.00,,,0.00,320,weatherlink.com 1.10,2013-02-16 20:07:00,
2013-02-16 15:22:00,31.2,17.0,29.89,NW,316,12.0,15.0,56,0.00,,,0.00,306,weatherlink.com 1.10,2013-02-16 20:22:00,
2013-02-16 15:38:00,30.6,17.0,29.90,WNW,296,13.0,15.0,57,0.00,,,0.00,105,weatherlink.com 1.10,2013-02-16 20:38:00,
2013-02-16 15:52:00,29.8,17.0,29.90,NW,316,4.0,13.0,59,0.00,,,0.00,95,weatherlink.com 1.10,2013-02-16 20:52:00,
2013-02-16 16:07:00,29.7,17.0,29.90,NW,309,9.0,13.0,60,0.00,,,0.00,65,weatherlink.com 1.10,2013-02-16 21:07:00,
2013-02-16 16:23:00,29.2,16.0,29.89,West,269,6.0,16.0,58,0.00,,,0.00,62,weatherlink.com 1.10,2013-02-16 21:23:00,
2013-02-16 16:38:00,29.0,16.0,29.88,WNW,300,8.0,12.0,59,0.00,,,0.00,40,weatherlink.com 1.10,2013-02-16 21:38:00,
2013-02-16 16:53:00,28.8,16.0,29.88,NW,309,7.0,13.0,59,0.00,,,0.00,21,weatherlink.com 1.10,2013-02-16 21:53:00,
2013-02-16 17:08:00,28.5,16.0,29.88,NW,311,9.0,13.0,60,0.00,,,0.00,5,weatherlink.com 1.10,2013-02-16 22:08:00,
2013-02-16 17:23:00,28.2,16.0,29.88,NW,311,14.0,15.0,60,0.00,,,0.00,0,weatherlink.com 1.10,2013-02-16 22:23:00,
2013-02-16 17:38:00,27.8,15.0,29.88,West,279,6.0,17.0,60,0.00,,,0.00,0,weatherlink.com 1.10,2013-02-16 22:38:00,
2013-02-16 17:53:00,27.5,16.0,29.89,WNW,301,11.0,15.0,61,0.00,,,0.00,0,weatherlink.com 1.10,2013-02-16 22:53:00,
2013-02-16 18:08:00,27.1,16.0,29.89,WNW,291,14.0,18.0,62,0.00,,,0.00,0,weatherlink.com 1.10,2013-02-16 23:08:00,
2013-02-16 18:23:00,26.6,15.0,29.89,NW,304,13.0,18.0,62,0.00,,,0.00,0,weatherlink.com 1.10,2013-02-16 23:23:00,
2013-02-16 18:38:00,26.3,15.0,29.89,NW,309,8.0,14.0,62,0.00,,,0.00,0,weatherlink.com 1.10,2013-02-16 23:38:00,
2013-02-16 18:53:00,26.0,14.0,29.89,NW,306,9.0,13.0,62,0.00,,,0.00,0,weatherlink.com 1.10,2013-02-16 23:53:00,
2013-02-16 19:08:00,25.8,14.0,29.89,NW,313,6.0,13.0,62,0.00,,,0.00,0,weatherlink.com 1.10,2013-02-17 00:08:00,
2013-02-16 19:23:00,25.6,14.0,29.89,WNW,299,6.0,12.0,62,0.00,,,0.00,0,weatherlink.com 1.10,2013-02-17 00:23:00,
2013-02-16 19:38:00,25.4,14.0,29.88,NW,321,6.0,9.0,62,0.00,,,0.00,0,weatherlink.com 1.10,2013-02-17 00:38:00,
2013-02-16 19:53:00,25.1,14.0,29.88,WNW,295,3.0,11.0,62,0.00,,,0.00,0,weatherlink.com 1.10,2013-02-17 00:53:00,
2013-02-16 20:08:00,24.8,13.0,29.88,NW,308,7.0,11.0,62,0.00,,,0.00,0,weatherlink.com 1.10,2013-02-17 01:08:00,
2013-02-16 20:23:00,24.4,13.0,29.87,NW,307,4.0,12.0,61,0.00,,,0.00,0,weatherlink.com 1.10,2013-02-17 01:23:00,
2013-02-16 20:38:00,24.7,12.0,29.88,NW,309,12.0,15.0,59,0.00,,,0.00,,weatherlink.com 1.10,2013-02-17 01:38:00,
2013-02-16 20:53:00,24.4,11.0,29.87,WNW,292,10.0,14.0,58,0.00,,,0.00,,weatherlink.com 1.10,2013-02-17 01:53:00,
2013-02-16 21:08:00,24.0,11.0,29.86,West,277,14.0,14.0,58,0.00,,,0.00,,weatherlink.com 1.10,2013-02-17 02:08:00,
2013-02-16 21:23:00,23.7,11.0,29.86,NNW,331,8.0,13.0,58,0.00,,,0.00,,weatherlink.com 1.10,2013-02-17 02:23:00,
2013-02-16 21:38:00,23.3,10.0,29.84,NW,316,10.0,15.0,57,0.00,,,0.00,,weatherlink.com 1.10,2013-02-17 02:38:00,
2013-02-16 21:53:00,23.1,10.0,29.84,WNW,300,8.0,15.0,57,0.00,,,0.00,,weatherlink.com 1.10,2013-02-17 02:53:00,
2013-02-16 22:09:00,23.0,9.0,29.84,NW,313,3.0,12.0,56,0.00,,,0.00,,weatherlink.com 1.10,2013-02-17 03:09:00,
2013-02-16 22:24:00,22.8,9.0,29.83,NW,321,8.0,14.0,56,0.00,,,0.00,,weatherlink.com 1.10,2013-02-17 03:24:00,
2013-02-16 22:39:00,23.1,10.0,29.83,SW,236,3.0,11.0,57,0.00,,,0.00,,weatherlink.com 1.10,2013-02-17 03:39:00,
2013-02-16 22:54:00,22.9,9.0,29.82,WSW,238,5.0,12.0,56,0.00,,,0.00,,weatherlink.com 1.10,2013-02-17 03:54:00,
2013-02-16 23:09:00,22.8,9.0,29.82,WSW,257,2.0,11.0,56,0.00,,,0.00,,weatherlink.com 1.10,2013-02-17 04:09:00,
2013-02-16 23:24:00,22.6,8.0,29.80,WSW,240,1.0,10.0,54,0.00,,,0.00,,weatherlink.com 1.10,2013-02-17 04:24:00,
2013-02-16 23:39:00,22.3,7.0,29.80,WNW,287,0.0,8.0,53,0.00,,,0.00,,weatherlink.com 1.10,2013-02-17 04:39:00,
2013-02-16 23:54:00,22.1,7.0,29.79,WNW,299,0.0,7.0,53,0.00,,,0.00,,weatherlink.com 1.10,2013-02-17 04:54:00,